Time;durP1;ratioP1;P1;durP2;ratioP2;P2;SDS_P1;SDS_P2;PMS_P1;PMS_P2;Temp;Humidity;BMP_temperature;BMP_pressure;BME280_temperature;BME280_humidity;BME280_pressure;Samples;Min_cycle;Max_cycle;Signal;HPM_P1;HPM_P2
2023/11/07 00:00:36;;;;;;;5.90;5.30;;;;;;;3.39;100.00;99083.53;6119801;23;20207;-81
2023/11/07 00:03:54;;;;;;;5.60;5.00;;;;;;;3.38;100.00;99077.41;6092959;23;20172;-81
2023/11/07 00:07:09;;;;;;;5.60;4.53;;;;;;;3.38;100.00;99082.69;6096927;23;20185;-81
2023/11/07 00:09:49;;;;;;;6.03;4.27;;;;;;;3.40;100.00;99082.53;6120268;23;20132;-81
2023/11/07 00:12:28;;;;;;;6.00;4.77;;;;;;;3.40;100.00;99093.94;6095112;23;20153;-81
2023/11/07 00:15:02;;;;;;;6.10;4.20;;;;;;;3.39;100.00;99094.94;6120322;23;20153;-80
2023/11/07 00:17:43;;;;;;;4.90;4.37;;;;;;;3.38;100.00;99095.13;6096428;23;20164;-81
2023/11/07 00:20:30;;;;;;;5.17;4.47;;;;;;;3.37;100.00;99099.59;6094763;23;20207;-81
2023/11/07 00:23:04;;;;;;;5.20;4.10;;;;;;;3.35;100.00;99101.63;6094799;23;20217;-80
2023/11/07 00:25:34;;;;;;;4.87;4.20;;;;;;;3.31;100.00;99115.41;6095371;23;20152;-80
2023/11/07 00:28:09;;;;;;;5.67;4.10;;;;;;;3.29;100.00;99115.59;6118980;23;20169;-81
2023/11/07 00:30:46;;;;;;;5.07;4.57;;;;;;;3.34;100.00;99129.09;6073384;23;20187;-81
2023/11/07 00:33:16;;;;;;;6.20;4.50;;;;;;;3.32;100.00;99144.34;6119112;23;20171;-81
2023/11/07 00:35:52;;;;;;;5.00;4.40;;;;;;;3.34;100.00;99149.47;6071639;23;20164;-80
2023/11/07 00:38:22;;;;;;;5.23;3.90;;;;;;;3.28;100.00;99151.00;6117698;23;20176;-81
2023/11/07 00:40:55;;;;;;;4.53;4.10;;;;;;;3.27;100.00;99153.84;6093907;23;20188;-80
2023/11/07 00:43:47;;;;;;;6.40;4.17;;;;;;;3.25;100.00;99154.03;6098404;23;20169;-80
2023/11/07 00:46:19;;;;;;;4.63;4.10;;;;;;;3.23;100.00;99153.41;6072103;23;20164;-80
2023/11/07 00:48:56;;;;;;;5.07;4.10;;;;;;;3.21;100.00;99171.31;6094079;23;20172;-81
2023/11/07 00:51:32;;;;;;;5.60;4.13;;;;;;;3.22;100.00;99172.13;6082893;23;20222;-80
2023/11/07 00:54:08;;;;;;;5.57;4.47;;;;;;;3.19;100.00;99173.31;6099398;23;20164;-81
2023/11/07 00:56:40;;;;;;;5.90;4.20;;;;;;;3.19;100.00;99181.25;6123298;23;20155;-80
2023/11/07 00:59:40;;;;;;;5.00;4.10;;;;;;;3.16;100.00;99191.38;6147098;23;20178;-80
2023/11/07 01:02:19;;;;;;;6.27;4.20;;;;;;;3.15;100.00;99200.31;6123818;23;20131;-81
2023/11/07 01:05:04;;;;;;;5.03;4.07;;;;;;;3.15;100.00;99195.84;6118199;23;20171;-81
2023/11/07 01:07:33;;;;;;;4.93;3.57;;;;;;;3.12;100.00;99206.81;6142722;23;20167;-81
2023/11/07 01:10:07;;;;;;;6.20;4.07;;;;;;;3.10;100.00;99212.28;6122626;23;20187;-80
2023/11/07 01:13:03;;;;;;;4.67;3.40;;;;;;;3.04;100.00;99210.34;6126312;23;20175;-80
2023/11/07 01:15:35;;;;;;;6.07;3.60;;;;;;;3.02;100.00;99215.03;6122779;23;20178;-80
2023/11/07 01:18:09;;;;;;;4.80;3.50;;;;;;;2.99;100.00;99209.25;6121089;23;20175;-80
2023/11/07 01:20:46;;;;;;;4.73;3.37;;;;;;;2.98;100.00;99213.75;6119841;23;20187;-80
2023/11/07 01:23:37;;;;;;;4.90;3.30;;;;;;;2.94;100.00;99212.44;6124766;23;20161;-80
2023/11/07 01:26:12;;;;;;;4.57;3.30;;;;;;;2.93;100.00;99217.94;6122971;23;20183;-80
2023/11/07 01:28:43;;;;;;;4.57;3.60;;;;;;;2.91;100.00;99225.22;6144714;23;20239;-80
2023/11/07 01:31:14;;;;;;;7.43;5.50;;;;;;;2.94;100.00;99224.88;6119816;23;20606;-80
2023/11/07 01:33:49;;;;;;;7.63;5.53;;;;;;;2.94;100.00;99224.88;6124748;23;20216;-81
2023/11/07 01:36:30;;;;;;;5.80;4.70;;;;;;;2.98;100.00;99224.34;6147853;23;20230;-81
2023/11/07 01:39:26;;;;;;;6.30;4.50;;;;;;;3.08;100.00;99224.88;6109277;23;20195;-81
2023/11/07 01:42:08;;;;;;;5.53;4.97;;;;;;;3.19;100.00;99213.00;6122410;23;20215;-80
2023/11/07 01:45:14;;;;;;;5.20;4.63;;;;;;;3.29;100.00;99216.22;6027271;23;20180;-81
2023/11/07 01:47:55;;;;;;;6.90;4.77;;;;;;;3.34;100.00;99227.06;6034408;23;20198;-81
2023/11/07 01:50:44;;;;;;;7.90;3.97;;;;;;;3.43;100.00;99218.03;6057394;23;20194;-81
2023/11/07 01:53:20;;;;;;;5.37;3.97;;;;;;;3.50;100.00;99216.28;6037972;23;20166;-81
2023/11/07 01:55:57;;;;;;;5.13;4.20;;;;;;;3.55;100.00;99223.66;6037269;23;20206;-81
2023/11/07 01:58:38;;;;;;;5.80;4.00;;;;;;;3.61;100.00;99219.47;6036825;23;20178;-80
2023/11/07 02:01:24;;;;;;;4.77;3.70;;;;;;;3.62;100.00;99213.16;6059374;23;20214;-81
2023/11/07 02:03:58;;;;;;;4.53;4.00;;;;;;;3.62;100.00;99214.00;6014889;23;20201;-81
2023/11/07 02:06:43;;;;;;;5.33;3.83;;;;;;;3.63;100.00;99212.16;6015699;23;20210;-81
2023/11/07 02:09:33;;;;;;;4.37;3.97;;;;;;;3.64;100.00;99211.97;6055712;23;20197;-81
2023/11/07 02:12:29;;;;;;;3.93;3.53;;;;;;;3.64;100.00;99211.97;6060414;23;20212;-81
2023/11/07 02:15:23;;;;;;;5.00;3.80;;;;;;;3.64;100.00;99211.16;6047326;23;20189;-81
2023/11/07 02:18:09;;;;;;;5.57;4.33;;;;;;;3.67;100.00;99213.44;6098973;23;20156;-81
2023/11/07 02:20:46;;;;;;;4.87;3.90;;;;;;;3.71;100.00;99220.00;6119823;23;20186;-81
2023/11/07 02:23:35;;;;;;;4.70;4.13;;;;;;;3.74;100.00;99215.16;6120791;23;20152;-81
2023/11/07 02:26:28;;;;;;;6.63;4.27;;;;;;;3.77;100.00;99222.75;6122144;23;20132;-81
2023/11/07 02:29:06;;;;;;;4.70;3.90;;;;;;;3.88;100.00;99238.16;6122439;23;20168;-81
2023/11/07 02:31:51;;;;;;;5.63;3.80;;;;;;;3.95;100.00;99231.09;6100381;23;20176;-81
2023/11/07 02:34:43;;;;;;;5.80;3.70;;;;;;;4.02;100.00;99227.69;6102049;23;20224;-81
2023/11/07 02:37:19;;;;;;;4.77;4.33;;;;;;;4.10;100.00;99230.25;6121581;23;20187;-81
2023/11/07 02:40:10;;;;;;;5.37;4.10;;;;;;;4.17;100.00;99228.47;6096495;23;20175;-81
2023/11/07 02:43:04;;;;;;;4.13;3.73;;;;;;;4.21;100.00;99241.16;6121869;23;20152;-81
2023/11/07 02:45:43;;;;;;;4.30;3.90;;;;;;;4.31;100.00;99236.38;6098961;23;20148;-81
2023/11/07 02:48:32;;;;;;;4.13;3.67;;;;;;;4.39;100.00;99249.50;6097121;23;20172;-80
2023/11/07 02:51:26;;;;;;;5.40;4.20;;;;;;;4.48;100.00;99260.00;6065544;23;20227;-81
2023/11/07 02:58:37;;;;;;;9.03;6.80;;;;;;;4.66;100.00;99252.44;6122196;23;20179;-81
2023/11/07 03:01:21;;;;;;;11.67;7.90;;;;;;;4.75;100.00;99265.38;6101912;23;20270;-80
2023/11/07 03:03:54;;;;;;;6.07;4.67;;;;;;;4.80;100.00;99254.19;6122350;23;20645;-81
2023/11/07 03:06:52;;;;;;;4.77;3.50;;;;;;;4.85;100.00;99255.22;6130857;23;20164;-81
2023/11/07 03:09:51;;;;;;;5.17;3.37;;;;;;;4.91;100.00;99252.81;6149855;23;20183;-81
2023/11/07 03:12:29;;;;;;;3.70;3.30;;;;;;;4.95;100.00;99259.38;6101903;23;20167;-81
2023/11/07 03:15:00;;;;;;;4.10;3.70;;;;;;;4.98;100.00;99262.50;6124351;23;20167;-81
2023/11/07 03:17:31;;;;;;;3.80;3.40;;;;;;;5.00;100.00;99259.63;6100219;23;20248;-81
2023/11/07 03:20:06;;;;;;;8.77;5.20;;;;;;;4.98;100.00;99262.50;6125167;23;20167;-81
2023/11/07 03:22:48;;;;;;;8.00;5.80;;;;;;;4.99;100.00;99261.50;6103060;23;20203;-81
2023/11/07 03:25:19;;;;;;;6.37;4.97;;;;;;;4.98;100.00;99259.84;6149344;23;20164;-80
2023/11/07 03:28:03;;;;;;;5.03;4.53;;;;;;;4.99;100.00;99258.84;6147373;23;20164;-81
2023/11/07 03:30:39;;;;;;;4.47;3.60;;;;;;;4.99;100.00;99258.00;6102945;23;20214;-81
2023/11/07 03:33:11;;;;;;;4.53;3.40;;;;;;;4.99;100.00;99266.81;6124232;23;20163;-81
2023/11/07 03:35:46;;;;;;;3.40;3.10;;;;;;;5.00;100.00;99267.59;6125950;23;20232;-81
2023/11/07 03:38:26;;;;;;;3.30;2.87;;;;;;;5.00;100.00;99263.09;6124578;23;20148;-80
2023/11/07 03:41:05;;;;;;;4.70;3.17;;;;;;;5.01;100.00;99271.91;6122837;23;20195;-81
2023/11/07 03:43:38;;;;;;;5.57;3.53;;;;;;;5.02;100.00;99273.53;6102745;23;20175;-81
2023/11/07 03:46:14;;;;;;;3.20;2.90;;;;;;;5.02;100.00;99282.34;6123240;23;20148;-80
2023/11/07 03:48:48;;;;;;;3.43;3.13;;;;;;;5.09;100.00;99275.22;6124524;23;20180;-80
2023/11/07 03:51:20;;;;;;;3.30;2.90;;;;;;;5.07;100.00;99274.63;6149420;23;20191;-80
2023/11/07 03:54:04;;;;;;;2.70;2.50;;;;;;;5.05;100.00;99270.50;6148962;23;20168;-81
2023/11/07 03:56:45;;;;;;;4.23;2.53;;;;;;;5.06;100.00;99266.84;6124918;23;20159;-80
2023/11/07 03:59:22;;;;;;;4.50;2.40;;;;;;;5.10;100.00;99265.44;6123656;23;20167;-81
2023/11/07 04:02:38;;;;;;;3.10;2.80;;;;;;;5.10;100.00;99268.09;6075843;23;20184;-81
2023/11/07 04:05:15;;;;;;;3.43;2.67;;;;;;;5.12;100.00;99260.75;6061282;23;20182;-81
2023/11/07 04:08:02;;;;;;;2.33;2.13;;;;;;;5.12;100.00;99266.88;6037458;23;20653;-81
2023/11/07 04:10:39;;;;;;;2.40;2.03;;;;;;;5.12;100.00;99269.53;6060686;23;20238;-81
2023/11/07 04:13:23;;;;;;;3.20;2.70;;;;;;;5.06;100.00;99283.59;6040784;23;20170;-81
2023/11/07 04:15:59;;;;;;;3.80;2.73;;;;;;;5.01;100.00;99275.38;6038739;23;20181;-81
2023/11/07 04:18:47;;;;;;;2.20;2.00;;;;;;;4.98;100.00;99275.78;6061613;23;20166;-81
2023/11/07 04:21:36;;;;;;;2.90;2.40;;;;;;;4.97;100.00;99275.94;6059036;23;20216;-81
2023/11/07 04:24:12;;;;;;;4.73;2.27;;;;;;;4.94;100.00;99276.34;6014498;23;20162;-81
2023/11/07 04:27:23;;;;;;;3.43;2.43;;;;;;;4.91;100.00;99276.72;6060496;23;20179;-81
2023/11/07 04:30:22;;;;;;;3.47;3.17;;;;;;;4.83;100.00;99275.84;6089417;23;20169;-81
2023/11/07 04:33:04;;;;;;;3.67;2.77;;;;;;;4.80;100.00;99281.56;6068888;23;20205;-81
2023/11/07 04:35:44;;;;;;;2.83;2.53;;;;;;;4.78;100.00;99291.53;6044186;23;20168;-81
2023/11/07 04:38:32;;;;;;;4.87;2.40;;;;;;;4.72;100.00;99280.84;6069656;23;20165;-81
2023/11/07 04:41:09;;;;;;;3.50;2.60;;;;;;;4.65;100.00;99279.97;6089126;23;20726;-81
2023/11/07 04:43:55;;;;;;;2.30;2.10;;;;;;;4.55;100.00;99290.91;6066272;23;20228;-81
2023/11/07 04:46:39;;;;;;;3.37;2.57;;;;;;;4.48;100.00;99282.03;6085232;23;20149;-81
2023/11/07 04:50:04;;;;;;;2.87;2.40;;;;;;;4.39;100.00;99299.06;6071858;23;20184;-81
2023/11/07 04:52:53;;;;;;;2.77;2.40;;;;;;;4.35;100.00;99303.94;6087148;23;20205;-81
2023/11/07 04:55:40;;;;;;;3.57;2.40;;;;;;;4.23;100.00;99289.53;6087841;23;20180;-81
2023/11/07 04:58:36;;;;;;;3.13;2.80;;;;;;;4.18;100.00;99294.59;6063550;23;20177;-81
2023/11/07 05:01:28;;;;;;;3.50;2.93;;;;;;;4.12;100.00;99297.16;6087545;23;20189;-81
2023/11/07 05:04:07;;;;;;;3.67;2.30;;;;;;;4.03;100.00;99292.97;6116314;23;20187;-81
2023/11/07 05:06:46;;;;;;;3.83;2.50;;;;;;;3.98;100.00;99289.03;6120448;23;20168;-81
2023/11/07 05:09:25;;;;;;;3.30;2.10;;;;;;;3.97;100.00;99294.50;6123717;23;20199;-81
2023/11/07 05:12:00;;;;;;;3.23;2.13;;;;;;;3.89;100.00;99292.81;6097592;23;20171;-80
2023/11/07 05:14:30;;;;;;;2.10;1.90;;;;;;;3.90;100.00;99296.28;6121395;23;20199;-80
2023/11/07 05:17:11;;;;;;;2.40;1.97;;;;;;;3.88;100.00;99300.94;6097325;23;20171;-81
2023/11/07 05:19:41;;;;;;;2.43;1.80;;;;;;;3.84;100.00;99302.31;6097815;23;20160;-80
2023/11/07 05:22:24;;;;;;;2.53;2.10;;;;;;;3.82;100.00;99304.34;6145504;23;20187;-82
2023/11/07 05:24:52;;;;;;;3.07;2.10;;;;;;;3.76;100.00;99311.19;6144764;23;20194;-80
2023/11/07 05:27:31;;;;;;;3.00;2.47;;;;;;;3.68;100.00;99303.34;6121131;23;20168;-80
2023/11/07 05:30:09;;;;;;;2.20;2.00;;;;;;;3.71;100.00;99305.63;6145840;23;20184;-80
2023/11/07 05:32:39;;;;;;;2.43;2.10;;;;;;;3.72;100.00;99298.50;6122054;23;20156;-80
2023/11/07 05:35:13;;;;;;;2.40;1.90;;;;;;;3.73;100.00;99298.31;6116101;23;20639;-80
2023/11/07 05:37:47;;;;;;;2.67;1.87;;;;;;;3.78;100.00;99297.75;6114987;23;20252;-80
2023/11/07 05:40:23;;;;;;;1.60;1.50;;;;;;;3.82;100.00;99304.34;6140548;23;20169;-80
2023/11/07 05:42:56;;;;;;;2.93;1.80;;;;;;;3.84;100.00;99305.78;6116786;23;20179;-80
2023/11/07 05:45:25;;;;;;;2.33;1.87;;;;;;;3.84;100.00;99304.97;6141085;23;20599;-80
2023/11/07 05:47:58;;;;;;;2.07;1.77;;;;;;;3.84;100.00;99307.59;6116996;23;20156;-80
2023/11/07 05:50:30;;;;;;;1.80;1.70;;;;;;;3.83;100.00;99305.97;6139899;23;20247;-80
2023/11/07 05:53:01;;;;;;;2.73;1.70;;;;;;;3.82;100.00;99312.28;6114988;23;20208;-80
2023/11/07 05:55:33;;;;;;;2.33;1.80;;;;;;;3.81;100.00;99307.97;6116768;23;20187;-80
2023/11/07 05:58:05;;;;;;;3.07;2.87;;;;;;;3.79;100.00;99316.09;6069546;23;20172;-80
2023/11/07 06:00:33;;;;;;;3.10;2.90;;;;;;;3.73;100.00;99321.34;6116391;23;20174;-80
2023/11/07 06:03:05;;;;;;;3.40;3.10;;;;;;;3.72;100.00;99327.63;6118570;23;20152;-80
2023/11/07 06:05:42;;;;;;;3.77;3.37;;;;;;;3.71;100.00;99334.75;6118443;23;20166;-80
2023/11/07 06:08:14;;;;;;;4.53;3.30;;;;;;;3.72;100.00;99330.28;6142647;23;20176;-80
2023/11/07 06:10:46;;;;;;;3.87;3.53;;;;;;;3.71;100.00;99333.94;6094311;23;20164;-80
2023/11/07 06:13:16;;;;;;;4.10;3.13;;;;;;;3.72;100.00;99336.41;6143367;23;20159;-80
2023/11/07 06:15:55;;;;;;;3.67;3.20;;;;;;;3.69;100.00;99338.59;6116388;23;20171;-80
2023/11/07 06:18:26;;;;;;;4.13;3.40;;;;;;;3.66;100.00;99337.13;6094925;23;20163;-80
2023/11/07 06:20:57;;;;;;;4.40;3.40;;;;;;;3.72;100.00;99347.00;6141872;23;20231;-80
2023/11/07 06:23:28;;;;;;;3.90;3.27;;;;;;;3.77;100.00;99351.75;6070342;23;20179;-80
2023/11/07 06:25:58;;;;;;;3.70;3.00;;;;;;;3.77;100.00;99351.75;6141362;23;20251;-80
2023/11/07 06:28:29;;;;;;;3.33;3.03;;;;;;;3.80;100.00;99346.09;6117641;23;20166;-80
2023/11/07 06:31:00;;;;;;;2.70;2.50;;;;;;;3.84;100.00;99350.00;6142908;23;20162;-80
2023/11/07 06:33:30;;;;;;;2.97;2.70;;;;;;;3.97;100.00;99352.84;6118573;23;20219;-80
2023/11/07 06:36:03;;;;;;;3.23;2.47;;;;;;;4.02;100.00;99357.59;6069867;23;20179;-80
2023/11/07 06:38:34;;;;;;;3.13;2.27;;;;;;;4.12;100.00;99372.22;6095107;23;20234;-79
2023/11/07 06:41:05;;;;;;;2.37;2.10;;;;;;;4.22;100.00;99374.56;6117995;23;20227;-79
2023/11/07 06:43:41;;;;;;;2.20;1.80;;;;;;;4.34;100.00;99381.88;6141847;23;20606;-79
2023/11/07 06:46:18;;;;;;;2.10;1.90;;;;;;;4.45;100.00;99380.56;6117050;23;20227;-80
2023/11/07 06:48:49;;;;;;;2.10;1.80;;;;;;;4.52;100.00;99376.19;6143617;23;20175;-79
2023/11/07 06:51:27;;;;;;;1.87;1.70;;;;;;;4.64;100.00;99372.03;6119320;23;20164;-80
2023/11/07 06:54:00;;;;;;;2.60;1.60;;;;;;;4.79;100.00;99375.44;6143891;23;20167;-80
2023/11/07 06:56:28;;;;;;;1.57;1.30;;;;;;;4.92;100.00;99366.78;6094734;23;20205;-80
2023/11/07 07:01:51;;;;;;;2.20;1.30;;;;;;;5.21;100.00;99366.66;6099370;23;20595;-80
2023/11/07 07:04:24;;;;;;;3.00;1.23;;;;;;;5.39;100.00;99376.81;6120195;23;20199;-79
2023/11/07 07:06:57;;;;;;;2.17;1.10;;;;;;;5.56;100.00;99386.13;6121295;23;20171;-80
2023/11/07 07:09:26;;;;;;;4.00;2.70;;;;;;;5.73;100.00;99378.69;6120453;23;20168;-80
2023/11/07 07:11:58;;;;;;;4.93;4.10;;;;;;;5.89;100.00;99383.72;6096804;23;20164;-80
2023/11/07 07:14:28;;;;;;;5.67;4.27;;;;;;;5.97;100.00;99390.75;6118923;23;20168;-80
2023/11/07 07:17:01;;;;;;;4.83;4.00;;;;;;;6.05;100.00;99387.91;6145736;23;20587;-80
2023/11/07 07:19:41;;;;;;;6.77;3.77;;;;;;;6.17;100.00;99383.69;6097635;23;20163;-80
2023/11/07 07:22:11;;;;;;;6.63;3.90;;;;;;;6.26;100.00;99390.47;6119024;23;20207;-80
2023/11/07 07:24:49;;;;;;;6.77;4.10;;;;;;;6.43;100.00;99386.47;6120410;23;20152;-80
2023/11/07 07:27:29;;;;;;;5.13;3.73;;;;;;;6.55;100.00;99386.72;6119974;23;20172;-80
2023/11/07 07:29:59;;;;;;;4.27;3.47;;;;;;;6.69;100.00;99384.91;6143896;23;20191;-80
2023/11/07 07:32:28;;;;;;;3.97;3.10;;;;;;;6.83;100.00;99384.75;6143760;23;20184;-80
2023/11/07 07:34:57;;;;;;;3.73;2.40;;;;;;;7.01;100.00;99386.81;6143585;23;20179;-80
2023/11/07 07:37:29;;;;;;;2.70;2.30;;;;;;;7.28;100.00;99382.38;6096962;23;20160;-80
2023/11/07 07:40:00;;;;;;;3.33;2.43;;;;;;;7.51;100.00;99386.25;6122022;23;20171;-80
2023/11/07 07:42:32;;;;;;;3.50;2.50;;;;;;;7.76;100.00;99382.94;6098854;23;20207;-80
2023/11/07 07:45:11;;;;;;;3.10;2.43;;;;;;;7.92;100.00;99380.69;6098606;23;20188;-80
2023/11/07 07:47:46;;;;;;;2.77;2.37;;;;;;;8.16;100.00;99375.69;6146102;23;20148;-81
2023/11/07 07:50:22;;;;;;;4.37;2.77;;;;;;;8.32;100.00;99370.72;6123534;23;20633;-81
2023/11/07 07:53:35;;;;;;;4.50;2.47;;;;;;;8.54;100.00;99373.91;6039874;23;20254;-81
2023/11/07 07:56:13;;;;;;;4.27;3.10;;;;;;;8.73;100.00;99372.19;5946459;23;20177;-81
2023/11/07 07:58:45;;;;;;;3.33;2.93;;;;;;;8.89;100.00;99369.00;6050203;23;20185;-81
2023/11/07 08:01:19;;;;;;;5.37;3.60;;;;;;;9.03;100.00;99370.56;6031981;23;20154;-81
2023/11/07 08:04:12;;;;;;;4.90;3.90;;;;;;;9.20;100.00;99365.50;6037082;23;20177;-81
2023/11/07 08:06:44;;;;;;;6.50;4.33;;;;;;;9.34;100.00;99376.91;6030639;23;20169;-81
2023/11/07 08:09:18;;;;;;;5.63;4.10;;;;;;;9.48;100.00;99373.91;6029991;23;20714;-81
2023/11/07 08:12:08;;;;;;;6.73;4.03;;;;;;;9.59;100.00;99373.22;6035087;23;20170;-81
2023/11/07 08:14:45;;;;;;;7.13;4.00;;;;;;;9.72;100.00;99374.94;6035154;23;20154;-80
2023/11/07 08:17:19;;;;;;;5.00;3.60;;;;;;;9.83;100.00;99379.59;6055717;23;20236;-81
2023/11/07 08:19:59;;;;;;;5.80;3.90;;;;;;;10.03;100.00;99376.72;6033248;23;20169;-81
2023/11/07 08:22:37;;;;;;;4.57;3.23;;;;;;;10.21;100.00;99382.09;6057461;23;20190;-81
2023/11/07 08:25:28;;;;;;;3.73;3.03;;;;;;;10.32;100.00;99381.34;6033686;23;20177;-81
2023/11/07 08:28:09;;;;;;;5.60;2.90;;;;;;;10.33;100.00;99380.31;6058700;23;20183;-81
2023/11/07 08:30:43;;;;;;;3.67;2.40;;;;;;;10.40;100.00;99397.13;6089668;23;20175;-81
2023/11/07 08:33:17;;;;;;;4.30;2.40;;;;;;;10.44;100.00;99386.78;6123249;23;20171;-81
2023/11/07 08:36:30;;;;;;;2.23;1.80;;;;;;;10.51;100.00;99390.19;6014425;23;20185;-81
2023/11/07 08:39:23;;;;;;;2.07;1.87;;;;;;;10.65;100.00;99386.31;6029816;23;20166;-81
2023/11/07 08:42:25;;;;;;;3.20;1.80;;;;;;;10.93;100.00;99393.75;6016097;23;20708;-81
2023/11/07 08:45:24;;;;;;;2.77;1.70;;;;;;;11.12;100.00;99398.03;6016731;23;20174;-81
2023/11/07 08:48:04;;;;;;;3.20;1.87;;;;;;;11.31;100.00;99398.78;6029856;23;20169;-81
2023/11/07 08:51:17;;;;;;;3.70;2.47;;;;;;;11.49;100.00;99391.47;5918571;24;20183;-81
2023/11/07 08:58:57;;;;;;;2.73;1.73;;;;;;;12.13;100.00;99411.22;5947999;24;20311;-81
2023/11/07 09:05:40;;;;;;;3.67;1.50;;;;;;;12.53;100.00;99405.94;5949903;24;20184;-80
2023/11/07 09:09:29;;;;;;;2.73;1.80;;;;;;;12.73;100.00;99402.84;6023596;23;20179;-81
2023/11/07 09:12:43;;;;;;;1.90;1.30;;;;;;;12.93;100.00;99405.91;6034509;23;20226;-81
2023/11/07 09:20:42;;;;;;;1.57;1.30;;;;;;;13.55;100.00;99414.03;6033503;23;20201;-81
2023/11/07 09:58:42;;;;;;;3.20;0.90;;;;;;;14.73;100.00;99392.06;6162401;23;20218;-83
2023/11/07 10:01:10;;;;;;;2.27;1.20;;;;;;;14.77;100.00;99384.25;6157831;23;20166;-83
2023/11/07 10:14:12;;;;;;;2.63;1.60;;;;;;;15.21;100.00;99390.41;6192855;23;20217;-84
2023/11/07 10:16:41;;;;;;;3.00;1.50;;;;;;;15.31;100.00;99394.00;6187935;23;20193;-85
2023/11/07 10:19:54;;;;;;;2.13;1.50;;;;;;;15.35;100.00;99389.72;6136794;23;20636;-84
2023/11/07 10:23:11;;;;;;;4.17;1.67;;;;;;;15.47;100.00;99389.56;6126692;23;20551;-82
2023/11/07 10:25:49;;;;;;;3.60;1.60;;;;;;;15.49;100.00;99386.63;6161024;23;20181;-83
2023/11/07 10:28:23;;;;;;;2.53;1.20;;;;;;;15.51;100.00;99376.38;6187182;23;20232;-84
2023/11/07 10:30:56;;;;;;;3.03;1.50;;;;;;;15.57;100.00;99367.25;6139142;23;20262;-84
2023/11/07 10:33:32;;;;;;;1.47;1.37;;;;;;;15.57;100.00;99362.69;6136453;23;20163;-85
2023/11/07 10:36:04;;;;;;;1.40;1.23;;;;;;;15.51;100.00;99352.91;6161769;23;20193;-89
2023/11/07 10:38:38;;;;;;;1.80;1.20;;;;;;;15.52;100.00;99345.63;6137240;23;20602;-77
2023/11/07 10:41:11;;;;;;;1.90;1.30;;;;;;;15.49;100.00;99344.19;6185406;23;20613;-77
2023/11/07 10:43:41;;;;;;;1.63;1.10;;;;;;;15.62;100.00;99346.53;6159872;23;20245;-79
2023/11/07 10:46:11;;;;;;;1.07;0.80;;;;;;;15.78;100.00;99353.63;6184057;23;20170;-77
2023/11/07 10:48:43;;;;;;;2.23;1.10;;;;;;;15.82;100.00;99338.53;6184787;23;20214;-76
2023/11/07 10:51:14;;;;;;;1.30;0.80;;;;;;;15.80;100.00;99335.28;6158482;23;20509;-80
2023/11/07 10:53:44;;;;;;;0.70;0.60;;;;;;;15.93;100.00;99336.72;6184572;23;20163;-79
2023/11/07 10:56:20;;;;;;;0.70;0.70;;;;;;;16.06;100.00;99333.53;6184915;23;20138;-77
2023/11/07 10:59:00;;;;;;;0.83;0.70;;;;;;;16.12;100.00;99340.59;6184487;23;20163;-77
2023/11/07 11:01:34;;;;;;;0.63;0.63;;;;;;;16.25;100.00;99334.72;6184831;23;20170;-76
2023/11/07 11:04:11;;;;;;;0.80;0.70;;;;;;;16.30;100.00;99336.63;6184453;23;20166;-76
2023/11/07 11:06:45;;;;;;;1.77;0.80;;;;;;;16.35;100.00;99327.72;6185092;23;20593;-78
2023/11/07 11:09:18;;;;;;;0.97;0.73;;;;;;;16.38;100.00;99322.59;6159376;23;20180;-78
2023/11/07 11:11:51;;;;;;;1.43;0.70;;;;;;;16.42;100.00;99322.91;6159780;23;20225;-76
2023/11/07 11:14:20;;;;;;;1.60;1.00;;;;;;;16.45;100.00;99319.66;6184587;23;20190;-76
2023/11/07 11:16:50;;;;;;;1.13;0.93;;;;;;;16.44;100.00;99323.44;6184785;23;20162;-76
2023/11/07 11:19:34;;;;;;;2.30;1.00;;;;;;;16.51;100.00;99313.19;6158435;23;20170;-75
2023/11/07 11:22:27;;;;;;;2.87;1.13;;;;;;;16.38;100.00;99316.41;6184861;23;20186;-77
2023/11/07 11:25:28;;;;;;;1.67;1.17;;;;;;;16.38;100.00;99317.19;6183846;23;20629;-76
2023/11/07 11:28:04;;;;;;;1.03;0.93;;;;;;;16.31;100.00;99313.94;6158830;23;20174;-76
2023/11/07 11:30:34;;;;;;;1.87;1.20;;;;;;;16.19;100.00;99308.72;6158844;23;20170;-77
2023/11/07 11:33:09;;;;;;;1.27;0.73;;;;;;;16.11;100.00;99301.13;6184930;23;20634;-76
2023/11/07 11:35:44;;;;;;;1.33;0.80;;;;;;;15.98;100.00;99312.44;6184705;23;20166;-77
2023/11/07 11:38:23;;;;;;;1.20;0.90;;;;;;;15.88;100.00;99304.25;6159473;23;20237;-76
2023/11/07 11:40:59;;;;;;;1.10;1.00;;;;;;;15.83;100.00;99298.81;6185778;23;20217;-85
2023/11/07 11:43:31;;;;;;;1.37;0.90;;;;;;;15.69;100.00;99290.38;6136956;23;20200;-85
2023/11/07 11:46:13;;;;;;;1.47;0.80;;;;;;;15.71;100.00;99293.66;6160922;23;20501;-85
2023/11/07 11:48:49;;;;;;;1.60;0.80;;;;;;;15.55;100.00;99296.50;6186361;23;20186;-85
2023/11/07 11:51:41;;;;;;;0.90;0.70;;;;;;;15.59;100.00;99282.22;6160347;23;20205;-86
2023/11/07 11:54:13;;;;;;;1.73;1.00;;;;;;;15.50;100.00;99283.75;6162330;23;20173;-86
2023/11/07 11:56:49;;;;;;;3.03;1.30;;;;;;;15.52;100.00;99280.81;6185575;23;20166;-86
2023/11/07 11:59:41;;;;;;;1.73;1.10;;;;;;;15.50;100.00;99282.91;6160128;23;20170;-87
2023/11/07 12:02:40;;;;;;;2.23;1.20;;;;;;;15.35;100.00;99284.44;6184786;23;20190;-85
2023/11/07 12:05:17;;;;;;;1.50;1.20;;;;;;;15.21;100.00;99277.06;6160186;23;20205;-85
2023/11/07 12:07:47;;;;;;;1.47;1.30;;;;;;;15.17;100.00;99290.25;6136178;23;20170;-85
2023/11/07 12:10:20;;;;;;;2.17;1.10;;;;;;;15.18;100.00;99274.88;6159814;23;20605;-87
2023/11/07 12:13:00;;;;;;;1.53;1.10;;;;;;;15.20;100.00;99272.72;6161220;23;20479;-85
2023/11/07 12:15:29;;;;;;;1.13;1.03;;;;;;;15.18;100.00;99262.19;6154278;23;20190;-85
2023/11/07 12:18:01;;;;;;;0.80;0.80;;;;;;;15.16;100.00;99266.22;6156368;23;20163;-84
2023/11/07 12:20:31;;;;;;;1.53;1.00;;;;;;;15.17;100.00;99265.94;6154455;23;20613;-86
2023/11/07 12:23:02;;;;;;;1.37;1.00;;;;;;;15.16;100.00;99271.63;6154492;23;20186;-86
2023/11/07 12:25:35;;;;;;;1.37;1.00;;;;;;;15.15;100.00;99275.38;6131995;23;20159;-86
2023/11/07 12:28:07;;;;;;;1.93;1.43;;;;;;;15.11;100.00;99268.88;6154604;23;20175;-86
2023/11/07 12:30:41;;;;;;;1.50;1.27;;;;;;;15.06;100.00;99264.25;6154287;23;20163;-85
2023/11/07 12:33:09;;;;;;;1.40;1.30;;;;;;;14.99;100.00;99260.94;6154748;23;20637;-85
2023/11/07 12:35:54;;;;;;;1.50;1.30;;;;;;;14.97;100.00;99250.44;6155453;23;20227;-83
2023/11/07 12:38:24;;;;;;;2.03;1.17;;;;;;;14.96;100.00;99248.00;6154795;23;20159;-84
2023/11/07 12:40:58;;;;;;;1.20;1.10;;;;;;;15.02;100.00;99238.88;6155254;23;20206;-85
2023/11/07 12:43:40;;;;;;;2.07;1.30;;;;;;;15.16;100.00;99233.84;6154592;23;20171;-84
2023/11/07 12:46:17;;;;;;;1.23;1.13;;;;;;;15.14;100.00;99241.38;6131194;23;20167;-86
2023/11/07 12:48:57;;;;;;;1.93;1.50;;;;;;;15.05;100.00;99226.75;6132066;23;20163;-84
2023/11/07 12:51:26;;;;;;;1.77;1.10;;;;;;;15.00;100.00;99219.41;6155294;23;20153;-85
2023/11/07 12:53:58;;;;;;;1.00;0.90;;;;;;;14.93;100.00;99211.53;6155813;23;20171;-85
2023/11/07 12:56:26;;;;;;;1.23;0.87;;;;;;;14.99;100.00;99205.13;6129828;23;20198;-85
2023/11/07 12:59:12;;;;;;;2.17;0.80;;;;;;;15.22;100.00;99212.03;6131236;23;20167;-84
2023/11/07 13:01:47;;;;;;;2.10;0.93;;;;;;;15.35;100.00;99200.75;6154896;23;20667;-82
2023/11/07 13:04:21;;;;;;;1.43;1.00;;;;;;;15.44;100.00;99191.09;6154895;23;20191;-84
2023/11/07 13:07:00;;;;;;;1.10;1.00;;;;;;;15.56;100.00;99190.13;6131004;23;20167;-85
2023/11/07 13:09:38;;;;;;;1.40;0.93;;;;;;;15.57;100.00;99192.56;6131108;23;20174;-85
2023/11/07 13:12:15;;;;;;;1.57;1.13;;;;;;;15.63;100.00;99194.19;6154331;23;20172;-85
2023/11/07 13:14:49;;;;;;;1.90;1.30;;;;;;;15.43;100.00;99194.09;6130123;23;20205;-85
2023/11/07 13:17:19;;;;;;;2.07;1.40;;;;;;;15.41;100.00;99198.91;6153958;23;20201;-84
2023/11/07 13:19:50;;;;;;;3.00;1.50;;;;;;;15.28;100.00;99193.97;6153915;23;20178;-84
2023/11/07 13:22:18;;;;;;;1.67;1.30;;;;;;;15.04;100.00;99190.03;6153517;23;20171;-85
2023/11/07 13:24:50;;;;;;;2.43;1.20;;;;;;;14.78;100.00;99189.03;6155478;23;20163;-86
2023/11/07 13:27:23;;;;;;;1.47;1.17;;;;;;;14.47;100.00;99185.25;6155539;23;20164;-83
2023/11/07 13:29:55;;;;;;;1.10;0.90;;;;;;;14.50;100.00;99187.44;6130535;23;20158;-83
2023/11/07 13:32:24;;;;;;;1.67;0.80;;;;;;;14.46;100.00;99178.25;6154724;23;20234;-84
2023/11/07 13:34:54;;;;;;;1.17;0.70;;;;;;;14.32;100.00;99182.41;6154620;23;20166;-83